Time;durP1;ratioP1;P1;durP2;ratioP2;P2;SDS_P1;SDS_P2;PMS_P1;PMS_P2;Temp;Humidity;BMP_temperature;BMP_pressure;BME280_temperature;BME280_humidity;BME280_pressure;Samples;Min_cycle;Max_cycle;Signal;HPM_P1;HPM_P2
2021/12/16 00:08:41;;;;;;;16.97;9.93;;;;;;;8.80;79.97;101994.94;1715730;82;21060;-74
2021/12/16 00:11:26;;;;;;;13.00;9.58;;;;;;;8.79;80.00;101995.36;1715587;82;21131;-74
2021/12/16 00:30:24;;;;;;;11.48;7.60;;;;;;;8.82;80.05;101985.41;1715704;82;21633;-74
2021/12/16 00:32:59;;;;;;;12.93;8.28;;;;;;;8.83;80.04;101980.66;1698447;83;22091;-73
2021/12/16 00:35:17;;;;;;;9.50;7.30;;;;;;;8.84;80.02;101985.08;1698475;84;21533;-73
2021/12/16 00:37:44;;;;;;;14.18;8.15;;;;;;;8.84;80.08;101990.33;1700900;83;21059;-74
2021/12/16 00:40:12;;;;;;;12.68;8.25;;;;;;;8.86;80.06;101992.62;1700816;84;21070;-74
2021/12/16 00:42:48;;;;;;;13.70;7.97;;;;;;;8.86;80.12;101997.48;1700944;84;21083;-74
2021/12/16 00:47:50;;;;;;;11.12;8.15;;;;;;;8.87;80.13;101997.06;1700981;82;21142;-74
2021/12/16 00:50:22;;;;;;;10.75;7.95;;;;;;;8.86;80.12;101992.62;1700249;84;21606;-74
2021/12/16 00:55:49;;;;;;;12.65;8.50;;;;;;;8.85;80.18;101991.73;1700751;84;21126;-74
2021/12/16 00:58:17;;;;;;;10.10;8.08;;;;;;;8.87;80.24;101990.50;1700504;84;22490;-73
2021/12/16 01:00:52;;;;;;;16.35;8.83;;;;;;;8.87;80.23;101992.70;1700637;84;21067;-73
2021/12/16 01:06:05;;;;;;;13.43;8.08;;;;;;;8.87;80.27;102015.02;1685719;84;21081;-73
2021/12/16 01:08:40;;;;;;;11.65;7.72;;;;;;;8.89;80.28;102025.19;1697461;84;21595;-73
2021/12/16 01:35:54;;;;;;;14.53;9.63;;;;;;;8.94;80.30;102018.88;1715789;83;21099;-73
2021/12/16 01:39:01;;;;;;;17.10;10.05;;;;;;;8.93;80.33;102020.62;1714141;83;21760;-73
2021/12/16 01:46:37;;;;;;;17.52;10.25;;;;;;;8.91;80.38;102012.15;1714813;82;21119;-73
2021/12/16 01:51:35;;;;;;;14.60;10.00;;;;;;;8.90;80.46;102009.05;1742863;82;21803;-72
2021/12/16 01:57:17;;;;;;;12.98;9.05;;;;;;;8.87;80.46;102001.00;1745513;82;21620;-73
2021/12/16 01:59:22;;;;;;;19.60;12.03;;;;;;;8.87;80.51;102019.38;1735517;80;21078;-73
2021/12/16 02:01:48;;;;;;;17.07;9.18;;;;;;;8.86;80.55;102014.55;1745521;81;21089;-73
2021/12/16 02:04:27;;;;;;;14.68;9.15;;;;;;;8.86;80.53;102009.69;1745424;82;22637;-73
2021/12/16 02:09:31;;;;;;;15.23;8.83;;;;;;;8.86;80.56;102011.92;1745629;81;21121;-73
2021/12/16 02:12:18;;;;;;;27.93;17.20;;;;;;;8.85;80.59;102017.09;1745072;82;20996;-73
2021/12/16 02:28:54;;;;;;;11.85;6.42;;;;;;;8.81;80.71;102042.28;1745450;82;21086;-73
2021/12/16 02:34:20;;;;;;;11.18;6.78;;;;;;;8.82;80.72;102043.17;1745046;82;21734;-73
2021/12/16 02:36:36;;;;;;;7.85;6.42;;;;;;;8.83;80.74;102056.39;1741978;82;21101;-73
2021/12/16 02:39:07;;;;;;;10.88;5.78;;;;;;;8.83;80.69;102046.30;1744368;82;21067;-73
2021/12/16 02:41:34;;;;;;;13.35;7.30;;;;;;;8.84;80.71;102050.33;1745607;81;21691;-73
2021/12/16 02:44:20;;;;;;;7.05;5.62;;;;;;;8.86;80.68;102046.44;1745596;82;21763;-73
2021/12/16 02:49:29;;;;;;;9.88;5.95;;;;;;;8.85;80.69;102047.28;1745873;82;21575;-74
2021/12/16 02:51:57;;;;;;;10.20;6.83;;;;;;;8.85;80.66;102050.80;1745693;82;21086;-73
2021/12/16 02:54:25;;;;;;;5.53;4.78;;;;;;;8.84;80.71;102055.97;1745630;81;21062;-73
2021/12/16 02:56:52;;;;;;;9.70;5.08;;;;;;;8.84;80.69;102052.03;1745601;81;21786;-73
2021/12/16 02:59:25;;;;;;;6.95;4.72;;;;;;;8.82;80.70;102061.55;1745593;82;21035;-73
2021/12/16 03:01:56;;;;;;;8.55;5.15;;;;;;;8.81;80.69;102050.16;1744859;82;21054;-73
2021/12/16 03:04:28;;;;;;;7.83;4.87;;;;;;;8.81;80.70;102042.70;1697875;84;21116;-73
2021/12/16 03:06:53;;;;;;;7.45;4.85;;;;;;;8.80;80.70;102037.83;1697475;83;21066;-73
2021/12/16 03:09:42;;;;;;;8.20;5.70;;;;;;;8.78;80.67;102030.29;1697779;84;22424;-73
2021/12/16 03:14:44;;;;;;;6.22;4.50;;;;;;;8.74;80.67;102016.52;1697800;84;21649;-73
2021/12/16 03:17:15;;;;;;;8.65;4.70;;;;;;;8.74;80.69;102002.08;1673522;84;21188;-73
2021/12/16 03:19:51;;;;;;;6.45;4.35;;;;;;;8.74;80.77;102014.78;1697865;84;21101;-73
2021/12/16 03:22:07;;;;;;;6.47;4.42;;;;;;;8.73;80.73;102018.67;1697840;84;21872;-73
2021/12/16 03:27:43;;;;;;;5.37;3.70;;;;;;;8.70;80.78;102007.58;1697566;84;21062;-73
2021/12/16 03:30:24;;;;;;;4.90;3.47;;;;;;;8.69;80.79;102006.17;1697992;83;21318;-73
2021/12/16 03:32:59;;;;;;;5.83;3.47;;;;;;;8.67;80.91;102007.82;1697565;83;21161;-73
2021/12/16 03:37:41;;;;;;;5.05;3.30;;;;;;;8.69;80.91;102005.79;1745585;82;21587;-72
2021/12/16 03:40:12;;;;;;;5.15;3.20;;;;;;;8.70;80.92;102005.38;1745541;82;21046;-73
2021/12/16 03:42:56;;;;;;;5.08;2.80;;;;;;;8.72;80.94;102016.85;1745686;82;21117;-73
2021/12/16 03:46:28;;;;;;;4.00;2.35;;;;;;;8.70;80.87;102006.27;1746098;81;21615;-73
2021/12/16 03:48:21;;;;;;;3.22;2.15;;;;;;;8.70;80.91;102006.27;1720330;82;21074;-73
2021/12/16 03:50:48;;;;;;;3.55;2.30;;;;;;;8.67;80.87;102011.38;1736807;82;21495;-73
2021/12/16 03:53:16;;;;;;;4.15;2.80;;;;;;;8.66;80.89;102025.72;1735457;82;21062;-73
2021/12/16 03:55:45;;;;;;;5.67;1.98;;;;;;;8.65;80.90;102026.14;1745531;82;21089;-73
2021/12/16 03:58:12;;;;;;;2.40;2.02;;;;;;;8.65;80.92;102029.16;1746042;82;21109;-74
2021/12/16 04:00:44;;;;;;;3.30;2.22;;;;;;;8.64;80.95;102029.99;1745576;81;21701;-73
2021/12/16 04:03:12;;;;;;;3.20;2.33;;;;;;;8.65;81.01;102048.84;1745323;82;21079;-73
2021/12/16 04:05:39;;;;;;;2.83;2.12;;;;;;;8.66;80.97;102045.41;1745768;82;21087;-73
2021/12/16 04:08:06;;;;;;;2.90;2.10;;;;;;;8.64;80.91;102037.45;1745847;81;21410;-73
2021/12/16 04:10:44;;;;;;;2.85;2.33;;;;;;;8.61;80.95;102045.14;1745844;81;21070;-75
2021/12/16 04:13:13;;;;;;;4.05;2.35;;;;;;;8.60;80.98;102048.61;1745526;80;22491;-73
2021/12/16 04:15:39;;;;;;;2.42;2.17;;;;;;;8.61;81.01;102049.50;1745804;81;22345;-73
2021/12/16 04:18:06;;;;;;;3.02;2.25;;;;;;;8.63;81.09;102057.05;1745931;81;21098;-73
2021/12/16 04:20:35;;;;;;;2.83;2.27;;;;;;;8.62;81.06;102065.34;1712665;82;21107;-74
2021/12/16 04:23:02;;;;;;;5.37;3.10;;;;;;;8.63;81.15;102067.13;1745820;81;21447;-75
2021/12/16 04:25:33;;;;;;;4.22;2.80;;;;;;;8.62;81.11;102058.78;1745443;81;22511;-73
2021/12/16 04:28:03;;;;;;;4.42;2.87;;;;;;;8.60;81.13;102055.59;1745686;81;21117;-73
2021/12/16 04:30:30;;;;;;;4.15;2.90;;;;;;;8.53;81.17;102048.67;1745340;82;21078;-74
2021/12/16 04:32:58;;;;;;;3.35;3.02;;;;;;;8.59;81.13;102067.78;1745312;82;21042;-75
2021/12/16 04:35:24;;;;;;;4.20;2.90;;;;;;;8.59;81.21;102059.02;1745399;82;21524;-74
2021/12/16 04:37:51;;;;;;;4.87;3.17;;;;;;;8.58;81.20;102050.64;1745595;82;22258;-73
2021/12/16 04:40:18;;;;;;;3.58;2.87;;;;;;;8.55;81.24;102043.52;1745433;82;21643;-73
2021/12/16 04:42:46;;;;;;;4.10;2.80;;;;;;;8.55;81.29;102039.58;1745457;82;21082;-73
2021/12/16 04:45:16;;;;;;;5.90;3.30;;;;;;;8.54;81.31;102037.79;1745563;82;21121;-73
2021/12/16 04:47:43;;;;;;;4.85;3.00;;;;;;;8.53;81.35;102042.11;1745791;82;21572;-73
2021/12/16 04:50:10;;;;;;;5.12;3.67;;;;;;;8.52;81.33;102043.34;1745646;81;22582;-73
2021/12/16 04:52:37;;;;;;;5.25;3.33;;;;;;;8.51;81.37;102041.55;1745430;82;21077;-73
2021/12/16 04:55:06;;;;;;;4.20;2.98;;;;;;;8.50;81.36;102033.17;1745617;82;21129;-72
2021/12/16 04:57:33;;;;;;;4.65;3.33;;;;;;;8.50;81.41;102027.92;1745658;82;21102;-72
2021/12/16 05:00:00;;;;;;;5.03;3.45;;;;;;;8.49;81.42;102030.96;1745929;82;21070;-73
2021/12/16 05:02:26;;;;;;;5.55;3.62;;;;;;;8.49;81.46;102033.59;1745619;82;21747;-72
2021/12/16 05:04:56;;;;;;;4.90;3.70;;;;;;;8.52;81.47;102039.39;1741758;82;21078;-72
2021/12/16 05:07:24;;;;;;;4.47;3.45;;;;;;;8.45;81.37;102030.73;1692418;83;21430;-74
2021/12/16 05:10:05;;;;;;;5.05;3.40;;;;;;;8.50;81.36;102038.42;1715362;82;21149;-73
2021/12/16 05:12:23;;;;;;;6.20;3.80;;;;;;;8.44;81.34;102045.97;1689891;83;21059;-73
2021/12/16 05:14:53;;;;;;;4.85;3.60;;;;;;;8.49;81.45;102041.88;1715480;82;22486;-73
2021/12/16 05:17:35;;;;;;;5.90;3.95;;;;;;;8.53;81.47;102054.34;1711764;82;21098;-73
2021/12/16 05:19:55;;;;;;;5.10;3.62;;;;;;;8.55;81.41;102049.66;1694249;84;21090;-73
2021/12/16 05:25:15;;;;;;;5.55;4.37;;;;;;;8.57;81.33;102036.62;1695078;82;21146;-74
2021/12/16 05:27:41;;;;;;;6.37;4.20;;;;;;;8.56;81.36;102013.42;1694668;83;21780;-75
2021/12/16 05:30:13;;;;;;;5.17;3.52;;;;;;;8.60;81.33;102016.22;1680253;84;21086;-75
2021/12/16 05:32:44;;;;;;;5.83;4.20;;;;;;;8.61;81.27;102020.63;1694924;83;21667;-74
2021/12/16 05:35:08;;;;;;;4.45;3.92;;;;;;;8.63;81.29;102027.75;1694398;83;21136;-76
2021/12/16 05:37:35;;;;;;;6.17;4.20;;;;;;;8.61;81.22;102028.08;1694675;83;21088;-76
2021/12/16 05:40:06;;;;;;;6.42;4.28;;;;;;;8.60;81.15;102013.59;1694721;83;21086;-81
2021/12/16 05:42:35;;;;;;;7.92;5.55;;;;;;;8.59;81.11;102026.21;1663767;83;21552;-81
2021/12/16 05:45:02;;;;;;;5.12;4.03;;;;;;;8.55;81.12;102042.20;1694896;83;21066;-75
2021/12/16 05:47:29;;;;;;;6.20;3.27;;;;;;;8.53;81.17;102046.05;1694831;83;21061;-75
2021/12/16 05:49:55;;;;;;;5.65;3.60;;;;;;;8.51;81.19;102052.05;1695058;83;21108;-75
2021/12/16 05:52:22;;;;;;;5.55;2.95;;;;;;;8.49;81.21;102051.95;1694868;83;22496;-73
2021/12/16 05:54:49;;;;;;;4.33;2.95;;;;;;;8.47;81.20;102060.16;1709340;81;21705;-73
2021/12/16 05:57:15;;;;;;;3.85;3.10;;;;;;;8.45;81.30;102081.48;1721397;81;21025;-75
2021/12/16 05:59:46;;;;;;;3.95;2.50;;;;;;;8.45;81.37;102091.08;1684345;81;21076;-75
2021/12/16 06:02:14;;;;;;;7.22;2.90;;;;;;;8.45;81.39;102096.33;1638911;83;21260;-75
2021/12/16 06:04:41;;;;;;;3.62;3.02;;;;;;;8.46;81.43;102088.93;1633819;85;22113;-75
2021/12/16 06:07:09;;;;;;;3.92;3.22;;;;;;;8.45;81.42;102091.98;1641092;85;21518;-75
2021/12/16 06:09:35;;;;;;;6.00;2.90;;;;;;;8.46;81.48;102099.43;1654546;85;21121;-75
2021/12/16 06:12:05;;;;;;;5.42;3.17;;;;;;;8.47;81.51;102111.75;1647412;85;21088;-75
2021/12/16 06:14:49;;;;;;;4.20;3.30;;;;;;;8.46;81.52;102104.26;1642044;85;21165;-74
2021/12/16 06:28:10;;;;;;;5.33;3.72;;;;;;;8.47;81.61;102103.88;1641181;86;21115;-73
2021/12/16 06:30:40;;;;;;;5.20;3.30;;;;;;;8.47;81.65;102103.45;1641110;87;21967;-73
2021/12/16 06:33:10;;;;;;;5.60;3.80;;;;;;;8.48;81.63;102110.91;1640624;85;21084;-73
2021/12/16 06:35:37;;;;;;;6.08;3.10;;;;;;;8.47;81.58;102114.38;1641223;85;21446;-73
2021/12/16 06:38:04;;;;;;;4.92;3.22;;;;;;;8.45;81.59;102107.72;1641666;86;21092;-74
2021/12/16 06:40:34;;;;;;;7.37;3.83;;;;;;;8.45;81.64;102119.53;1665427;84;21138;-73
2021/12/16 06:43:05;;;;;;;4.67;3.08;;;;;;;8.46;81.67;102126.98;1700659;84;22709;-73
2021/12/16 06:45:36;;;;;;;8.83;3.80;;;;;;;8.46;81.67;102135.75;1700634;84;21049;-73
2021/12/16 06:48:09;;;;;;;5.80;2.92;;;;;;;8.47;81.67;102136.67;1698336;82;21701;-73
2021/12/16 06:50:42;;;;;;;4.30;2.50;;;;;;;8.47;81.60;102145.86;1692243;84;21587;-73
2021/12/16 06:53:01;;;;;;;4.30;2.98;;;;;;;8.46;81.55;102151.91;1680562;82;21092;-73
2021/12/16 06:55:37;;;;;;;6.65;4.55;;;;;;;8.43;81.54;102163.15;1666840;85;21800;-73
2021/12/16 06:57:57;;;;;;;20.27;13.30;;;;;;;8.41;81.49;102158.58;1665254;85;21065;-73
2021/12/16 07:00:32;;;;;;;20.12;15.68;;;;;;;8.38;81.47;102155.38;1666871;83;21089;-73
2021/12/16 07:03:02;;;;;;;21.57;15.58;;;;;;;8.36;81.45;102153.09;1689275;84;21089;-72
2021/12/16 07:05:39;;;;;;;5.37;3.22;;;;;;;8.31;81.39;102161.09;1689610;84;21101;-73
2021/12/16 07:08:10;;;;;;;9.48;2.67;;;;;;;8.26;81.38;102155.98;1670866;84;22483;-73
2021/12/16 07:10:37;;;;;;;5.53;2.33;;;;;;;8.19;81.33;102173.11;1689567;84;21073;-73
2021/12/16 07:13:07;;;;;;;3.87;2.30;;;;;;;8.12;81.36;102175.77;1673429;84;21125;-73
2021/12/16 07:15:35;;;;;;;6.50;2.55;;;;;;;8.07;81.38;102178.95;1719153;81;22633;-73
2021/12/16 07:18:02;;;;;;;3.72;2.33;;;;;;;8.03;81.44;102194.91;1707189;81;21680;-73
2021/12/16 07:20:30;;;;;;;4.12;2.62;;;;;;;8.02;81.57;102198.78;1726563;81;21756;-73
2021/12/16 07:22:58;;;;;;;4.08;2.50;;;;;;;8.04;81.63;102201.08;1708961;81;21141;-73
2021/12/16 07:25:25;;;;;;;4.85;2.55;;;;;;;8.06;81.64;102190.27;1724622;81;21089;-73
2021/12/16 07:27:52;;;;;;;6.60;3.60;;;;;;;8.04;81.51;102182.72;1717675;81;21113;-73
2021/12/16 07:30:20;;;;;;;8.55;4.45;;;;;;;8.00;81.42;102174.19;1733641;81;21093;-73
2021/12/16 07:32:47;;;;;;;6.53;3.08;;;;;;;7.98;81.45;102178.92;1726674;81;21725;-73
2021/12/16 07:35:22;;;;;;;7.17;3.67;;;;;;;7.96;81.40;102179.24;1722002;81;21351;-73
2021/12/16 07:37:47;;;;;;;5.08;3.08;;;;;;;7.95;81.40;102183.97;1715690;81;21163;-73
2021/12/16 07:40:15;;;;;;;5.53;3.02;;;;;;;7.96;81.31;102187.52;1721430;81;21059;-73
2021/12/16 07:42:58;;;;;;;6.15;3.00;;;;;;;7.95;81.24;102189.63;1719531;81;21076;-73
2021/12/16 07:45:13;;;;;;;6.10;2.60;;;;;;;7.97;81.16;102188.00;1714512;81;21706;-73
2021/12/16 07:47:39;;;;;;;5.40;2.85;;;;;;;7.96;81.03;102175.30;1726295;81;21057;-73
2021/12/16 07:50:07;;;;;;;5.12;2.98;;;;;;;7.94;80.91;102189.16;1712939;81;21594;-73
2021/12/16 07:52:35;;;;;;;6.10;2.87;;;;;;;7.93;80.88;102186.02;1712579;81;21021;-73
2021/12/16 07:55:02;;;;;;;8.10;3.85;;;;;;;7.91;80.82;102178.47;1712242;81;21481;-73
2021/12/16 07:57:29;;;;;;;7.97;3.30;;;;;;;7.90;80.74;102188.45;1713707;81;21694;-73
2021/12/16 07:59:56;;;;;;;8.63;3.35;;;;;;;7.88;80.70;102188.38;1707223;81;21072;-73
2021/12/16 08:02:22;;;;;;;7.92;3.80;;;;;;;7.87;80.60;102185.67;1719868;82;21054;-73
2021/12/16 08:04:51;;;;;;;7.42;3.52;;;;;;;7.83;80.52;102187.20;1745487;82;21134;-73
2021/12/16 08:07:18;;;;;;;5.70;2.42;;;;;;;7.78;80.43;102175.11;1745831;82;21094;-73
2021/12/16 08:09:45;;;;;;;9.40;2.85;;;;;;;7.75;80.37;102171.41;1745549;81;21771;-73
2021/12/16 08:12:13;;;;;;;6.47;3.12;;;;;;;7.69;80.28;102177.61;1745633;82;21050;-73
2021/12/16 08:14:41;;;;;;;7.72;2.42;;;;;;;7.63;80.29;102175.52;1745834;82;21089;-73
2021/12/16 08:17:08;;;;;;;5.30;2.60;;;;;;;7.43;80.31;102136.73;1722444;82;21504;-73
2021/12/16 08:19:34;;;;;;;11.03;3.17;;;;;;;7.53;80.29;102165.31;1745834;81;21085;-73
2021/12/16 08:22:01;;;;;;;6.80;2.55;;;;;;;7.47;80.32;102172.41;1745909;81;22552;-73
2021/12/16 08:24:28;;;;;;;9.05;2.47;;;;;;;7.41;80.36;102175.94;1745590;82;21175;-73
2021/12/16 08:26:55;;;;;;;7.40;2.83;;;;;;;7.36;80.41;102179.60;1717307;82;21163;-73
2021/12/16 08:29:21;;;;;;;7.97;2.98;;;;;;;7.34;80.49;102173.78;1715994;83;21315;-72
2021/12/16 08:31:48;;;;;;;6.30;2.27;;;;;;;7.32;80.51;102174.06;1716116;83;21084;-73
2021/12/16 08:34:16;;;;;;;5.72;2.83;;;;;;;7.29;80.50;102178.72;1715935;83;22999;-73
2021/12/16 08:36:43;;;;;;;11.12;3.20;;;;;;;7.28;80.58;102174.31;1715853;83;21075;-73
2021/12/16 08:39:09;;;;;;;10.72;3.40;;;;;;;7.32;80.65;102181.92;1716072;83;22069;-73
2021/12/16 08:41:46;;;;;;;10.13;3.30;;;;;;;7.38;80.72;102187.56;1715816;83;21044;-72
2021/12/16 08:44:13;;;;;;;7.25;3.10;;;;;;;7.45;80.73;102200.23;1715944;83;21712;-73
2021/12/16 08:46:43;;;;;;;8.78;2.67;;;;;;;7.55;80.71;102206.51;1715811;83;21803;-73
2021/12/16 08:49:09;;;;;;;5.47;2.42;;;;;;;7.67;80.64;102205.02;1715791;83;21491;-73
2021/12/16 08:51:41;;;;;;;7.55;2.70;;;;;;;7.78;80.47;102208.30;1715841;83;21059;-73
2021/12/16 08:54:11;;;;;;;9.25;2.50;;;;;;;7.86;80.38;102209.64;1715851;83;21075;-73
2021/12/16 08:56:38;;;;;;;9.13;2.87;;;;;;;7.96;80.17;102217.26;1715715;83;21088;-73
2021/12/16 08:59:05;;;;;;;10.38;2.95;;;;;;;8.04;79.97;102215.09;1744180;82;21787;-73
2021/12/16 09:01:35;;;;;;;5.90;2.83;;;;;;;8.10;79.87;102204.05;1744482;82;21047;-73
2021/12/16 09:04:02;;;;;;;9.03;2.95;;;;;;;8.17;79.76;102217.61;1740346;82;21054;-73
2021/12/16 09:06:30;;;;;;;8.53;3.60;;;;;;;8.18;79.63;102206.70;1740517;82;21102;-73
2021/12/16 09:08:57;;;;;;;8.23;2.83;;;;;;;8.25;79.48;102208.87;1740603;82;21149;-73
2021/12/16 09:11:25;;;;;;;6.92;2.40;;;;;;;8.27;79.36;102222.97;1740641;82;22603;-73
2021/12/16 09:13:55;;;;;;;7.80;2.80;;;;;;;8.28;79.27;102234.39;1740600;82;21580;-73
2021/12/16 09:16:24;;;;;;;8.23;3.02;;;;;;;8.29;79.12;102227.89;1740859;82;21668;-73
2021/12/16 09:18:51;;;;;;;7.53;2.80;;;;;;;8.27;79.03;102224.28;1740782;82;21106;-73
2021/12/16 09:21:21;;;;;;;9.88;2.98;;;;;;;8.26;78.96;102235.61;1733749;82;21032;-73
2021/12/16 09:23:48;;;;;;;8.53;2.98;;;;;;;8.24;78.89;102233.31;1719661;82;22761;-73
2021/12/16 09:26:15;;;;;;;8.18;2.52;;;;;;;8.18;78.72;102236.86;1718714;82;21661;-73
2021/12/16 09:28:41;;;;;;;10.58;3.15;;;;;;;8.12;78.59;102237.82;1719421;82;21139;-73
2021/12/16 09:31:11;;;;;;;7.97;2.80;;;;;;;8.04;78.56;102234.75;1704022;82;21091;-73
2021/12/16 09:33:43;;;;;;;9.73;2.70;;;;;;;7.96;78.53;102226.44;1700350;83;21512;-73
2021/12/16 09:36:09;;;;;;;9.20;3.10;;;;;;;7.91;78.55;102220.42;1700504;84;22597;-73
2021/12/16 09:38:35;;;;;;;10.25;3.15;;;;;;;7.88;78.56;102244.75;1685783;85;21142;-73
2021/12/16 09:41:02;;;;;;;11.75;3.30;;;;;;;7.85;78.52;102245.87;1685725;84;21616;-73
2021/12/16 09:43:33;;;;;;;8.38;3.40;;;;;;;7.84;78.54;102242.73;1685877;85;21739;-73
2021/12/16 09:46:03;;;;;;;10.45;2.95;;;;;;;7.81;78.52;102238.64;1684397;85;21417;-73
2021/12/16 09:48:31;;;;;;;10.63;3.20;;;;;;;7.79;78.52;102250.34;1685426;85;21797;-73
2021/12/16 09:50:58;;;;;;;11.93;3.42;;;;;;;7.79;78.47;102249.44;1693887;83;21127;-72
2021/12/16 09:53:24;;;;;;;8.90;3.22;;;;;;;7.78;78.45;102239.75;1700812;83;21135;-73
2021/12/16 09:55:58;;;;;;;14.70;4.08;;;;;;;7.78;78.45;102232.78;1707983;83;21636;-73
2021/12/16 09:58:20;;;;;;;11.18;3.37;;;;;;;7.82;78.50;102229.94;1713129;83;21378;-73
2021/12/16 10:00:46;;;;;;;10.68;3.25;;;;;;;7.87;78.49;102236.38;1701033;83;21744;-73
2021/12/16 10:03:13;;;;;;;12.28;3.50;;;;;;;7.94;78.46;102238.55;1701025;82;21060;-73
2021/12/16 10:05:40;;;;;;;10.63;3.33;;;;;;;8.02;78.42;102228.94;1711057;82;21096;-73
2021/12/16 10:08:09;;;;;;;12.75;3.47;;;;;;;8.05;78.20;102235.65;1692924;84;21101;-73
2021/12/16 10:10:35;;;;;;;10.85;3.02;;;;;;;8.08;78.12;102236.73;1657642;84;21082;-73
2021/12/16 10:13:04;;;;;;;9.25;2.67;;;;;;;8.17;78.20;102244.25;1748769;81;21765;-73
2021/12/16 10:18:21;;;;;;;9.63;2.85;;;;;;;8.34;77.77;102225.56;1725923;81;21558;-73
2021/12/16 10:20:58;;;;;;;9.05;2.83;;;;;;;8.40;77.74;102223.70;1710299;81;21073;-73
2021/12/16 10:23:35;;;;;;;10.78;2.98;;;;;;;8.43;77.41;102215.63;1701191;81;38146;-73
2021/12/16 10:26:07;;;;;;;10.78;2.95;;;;;;;8.46;77.40;102224.97;1707435;82;21999;-73
2021/12/16 10:28:40;;;;;;;8.80;3.08;;;;;;;8.48;77.29;102222.02;1674284;84;21242;-73
2021/12/16 10:31:22;;;;;;;5.93;2.97;;;;;;;8.57;77.43;102219.02;1719132;81;21053;-73
2021/12/16 10:33:57;;;;;;;13.68;2.83;;;;;;;8.74;77.36;102219.97;1748077;81;21407;-73
2021/12/16 10:36:37;;;;;;;9.18;3.25;;;;;;;8.93;77.33;102236.34;1699632;82;21105;-73
2021/12/16 10:39:21;;;;;;;7.33;2.80;;;;;;;9.08;77.15;102235.87;1701674;82;21865;-73
2021/12/16 10:41:54;;;;;;;8.15;3.00;;;;;;;9.22;76.78;102237.95;1705104;82;21097;-72
2021/12/16 10:44:32;;;;;;;12.20;3.43;;;;;;;9.30;76.57;102240.57;1676453;84;21123;-73
2021/12/16 10:47:12;;;;;;;11.78;3.62;;;;;;;9.36;76.47;102234.75;1691207;83;21069;-72
2021/12/16 10:49:43;;;;;;;10.13;3.47;;;;;;;9.40;75.92;102234.08;1742137;81;21121;-73
2021/12/16 10:52:14;;;;;;;10.53;2.72;;;;;;;9.36;75.78;102218.08;1732150;81;21784;-72
2021/12/16 10:54:47;;;;;;;9.43;2.45;;;;;;;9.40;75.52;102224.88;1691450;84;21549;-72
2021/12/16 10:57:22;;;;;;;9.00;3.17;;;;;;;9.35;75.24;102221.13;1727017;83;21618;-72
2021/12/16 10:59:57;;;;;;;11.95;3.50;;;;;;;9.37;75.24;102226.05;1726516;82;21081;-72
2021/12/16 11:02:30;;;;;;;11.43;3.52;;;;;;;9.39;75.11;102216.95;1725184;82;21133;-72
2021/12/16 11:05:04;;;;;;;10.20;2.75;;;;;;;9.36;75.01;102218.98;1721079;83;21885;-75
2021/12/16 11:07:39;;;;;;;14.75;3.00;;;;;;;9.33;74.83;102213.16;1720990;83;21046;-73
2021/12/16 11:10:18;;;;;;;10.95;3.02;;;;;;;9.29;74.74;102215.14;1721154;83;21033;-73
2021/12/16 11:12:59;;;;;;;13.48;3.17;;;;;;;9.21;74.43;102199.77;1719883;81;21520;-74
2021/12/16 11:15:35;;;;;;;13.18;3.02;;;;;;;9.10;74.20;102207.98;1687066;81;21133;-73
2021/12/16 11:18:17;;;;;;;9.55;3.27;;;;;;;8.94;74.10;102198.35;1684032;83;21770;-73
2021/12/16 11:20:47;;;;;;;7.30;2.77;;;;;;;8.83;74.23;102189.40;1684155;84;21141;-73
2021/12/16 11:23:34;;;;;;;9.88;3.27;;;;;;;8.72;74.46;102197.56;1684193;85;21110;-73
2021/12/16 11:26:05;;;;;;;14.13;3.52;;;;;;;8.66;74.47;102197.23;1683694;85;21568;-73
2021/12/16 11:28:39;;;;;;;18.62;4.40;;;;;;;8.56;74.61;102195.82;1684144;84;21180;-73
2021/12/16 11:31:11;;;;;;;13.08;3.67;;;;;;;8.47;74.69;102193.98;1683689;85;21699;-73
2021/12/16 11:33:46;;;;;;;12.73;4.85;;;;;;;8.40;74.74;102198.35;1684807;83;21154;-73
2021/12/16 11:36:27;;;;;;;12.95;3.92;;;;;;;8.34;74.88;102212.02;1695012;81;21088;-73
2021/12/16 11:39:07;;;;;;;13.10;3.22;;;;;;;8.31;74.74;102226.27;1690698;84;21625;-73
2021/12/16 11:41:48;;;;;;;17.57;3.90;;;;;;;8.25;74.74;102236.41;1692924;83;21123;-73
2021/12/16 11:44:22;;;;;;;11.50;3.70;;;;;;;8.24;75.00;102239.87;1692247;84;22360;-73
2021/12/16 11:47:04;;;;;;;12.80;3.67;;;;;;;8.28;75.15;102251.03;1692754;84;21098;-73
2021/12/16 11:49:43;;;;;;;13.18;4.35;;;;;;;8.34;75.14;102245.23;1691618;84;21144;-72
2021/12/16 11:52:18;;;;;;;12.00;3.45;;;;;;;8.36;74.98;102251.06;1692409;83;21757;-73
2021/12/16 11:55:05;;;;;;;15.15;3.87;;;;;;;8.35;74.70;102268.95;1697131;81;21065;-73
2021/12/16 11:57:39;;;;;;;17.90;4.15;;;;;;;8.30;74.67;102266.45;1733513;81;21717;-74
2021/12/16 12:00:10;;;;;;;9.90;3.33;;;;;;;8.22;74.61;102265.11;1730279;81;21583;-73
2021/12/16 12:02:50;;;;;;;17.27;4.08;;;;;;;8.12;74.41;102288.97;1729551;81;21069;-73
2021/12/16 12:05:28;;;;;;;13.93;4.33;;;;;;;8.02;74.59;102269.16;1696324;81;21299;-73
2021/12/16 12:08:23;;;;;;;15.88;4.08;;;;;;;7.99;74.65;102283.39;1725860;81;21099;-73
2021/12/16 12:11:06;;;;;;;16.80;4.60;;;;;;;7.93;74.63;102267.30;1740027;81;22316;-73
2021/12/16 12:13:40;;;;;;;18.00;4.50;;;;;;;7.83;74.62;102267.16;1724519;81;21513;-73
2021/12/16 12:16:10;;;;;;;15.63;4.12;;;;;;;7.76;74.65;102266.28;1715222;81;21050;-73
2021/12/16 12:19:00;;;;;;;16.37;4.20;;;;;;;7.71;74.72;102243.70;1730515;81;21025;-73
2021/12/16 12:21:56;;;;;;;17.75;4.00;;;;;;;7.66;74.77;102247.79;1713671;81;21119;-73
2021/12/16 12:24:25;;;;;;;23.77;4.67;;;;;;;7.63;74.80;102238.83;1723802;81;22587;-73
2021/12/16 12:27:01;;;;;;;17.25;4.17;;;;;;;7.59;74.75;102203.67;1720712;81;21199;-73
2021/12/16 12:29:49;;;;;;;12.88;3.47;;;;;;;7.55;74.83;102208.23;1719612;81;21069;-73
2021/12/16 12:32:21;;;;;;;19.73;5.22;;;;;;;7.52;74.91;102212.86;1733258;81;21591;-73
2021/12/16 12:34:52;;;;;;;16.17;4.75;;;;;;;7.50;74.94;102221.45;1697955;84;21077;-73
2021/12/16 12:37:20;;;;;;;20.45;5.42;;;;;;;7.48;74.96;102217.84;1697828;84;22748;-73
2021/12/16 12:39:55;;;;;;;19.60;4.95;;;;;;;7.47;74.94;102223.88;1697923;83;21077;-73
2021/12/16 12:42:21;;;;;;;18.12;4.87;;;;;;;7.46;74.96;102222.98;1698168;84;21101;-73
2021/12/16 12:44:48;;;;;;;19.30;5.33;;;;;;;7.44;74.95;102233.77;1697997;84;21045;-73
2021/12/16 12:47:19;;;;;;;20.17;5.40;;;;;;;7.44;74.93;102235.08;1698360;84;21639;-73
2021/12/16 12:49:46;;;;;;;19.20;6.33;;;;;;;7.43;74.98;102239.80;1697852;84;21745;-73
2021/12/16 12:52:16;;;;;;;18.92;4.87;;;;;;;7.44;74.98;102259.97;1697835;84;21072;-73
2021/12/16 12:54:47;;;;;;;21.30;5.62;;;;;;;7.42;75.00;102260.28;1697720;84;21369;-73
2021/12/16 12:57:24;;;;;;;20.45;4.95;;;;;;;7.42;75.05;102264.63;1665747;84;21144;-73
2021/12/16 12:59:51;;;;;;;16.85;4.47;;;;;;;7.44;75.17;102267.83;1697807;83;21159;-73
2021/12/16 13:02:26;;;;;;;26.25;5.45;;;;;;;7.48;75.18;102259.76;1697666;84;21760;-73
2021/12/16 13:05:01;;;;;;;22.85;5.28;;;;;;;7.46;75.09;102278.41;1697672;84;21156;-73
2021/12/16 13:07:43;;;;;;;21.57;6.25;;;;;;;7.44;75.09;102258.66;1697675;84;21084;-73
2021/12/16 13:10:18;;;;;;;26.93;5.92;;;;;;;7.42;75.11;102245.88;1667361;85;21157;-73
2021/12/16 13:13:00;;;;;;;18.67;5.10;;;;;;;7.42;75.15;102238.42;1668096;85;21160;-73
2021/12/16 13:15:34;;;;;;;20.57;5.30;;;;;;;7.40;75.19;102235.30;1697605;84;21769;-73
2021/12/16 13:26:48;;;;;;;24.85;5.33;;;;;;;7.39;75.20;102243.98;1697908;84;21346;-72
2021/12/16 13:32:18;;;;;;;26.00;6.92;;;;;;;7.35;75.23;102231.89;1697950;84;21132;-73
2021/12/16 13:35:03;;;;;;;17.98;4.95;;;;;;;7.31;75.24;102239.96;1697755;83;21567;-73
2021/12/16 13:37:30;;;;;;;21.52;5.15;;;;;;;7.28;75.28;102239.80;1696246;84;21056;-73
2021/12/16 13:40:08;;;;;;;24.23;5.58;;;;;;;7.25;75.33;102233.04;1698255;84;21097;-73
2021/12/16 13:42:51;;;;;;;24.82;5.67;;;;;;;7.23;75.29;102227.22;1698006;83;21757;-73
2021/12/16 13:45:24;;;;;;;25.08;5.12;;;;;;;7.19;75.28;102240.53;1698078;83;21041;-72
2021/12/16 13:48:03;;;;;;;20.82;5.42;;;;;;;7.14;75.28;102239.32;1697422;84;21148;-73
2021/12/16 14:02:47;;;;;;;20.88;5.33;;;;;;;6.85;75.49;102250.17;1697879;84;21057;-73
2021/12/16 14:05:20;;;;;;;25.57;4.75;;;;;;;6.82;75.52;102263.05;1711121;83;21627;-73